createdAt,value
2023-01-13T00:01:24.781Z,11.30
2023-01-13T00:03:52.618Z,11.07
2023-01-13T00:06:22.425Z,9.25
2023-01-13T00:08:50.348Z,9.35
2023-01-13T00:11:18.939Z,9.98
2023-01-13T00:13:45.977Z,9.77
2023-01-13T00:16:18.349Z,10.07
2023-01-13T00:18:45.994Z,10.27
2023-01-13T00:21:21.416Z,10.50
2023-01-13T00:23:49.326Z,11.27
2023-01-13T00:26:21.799Z,11.38
2023-01-13T00:28:49.909Z,11.25
2023-01-13T00:31:19.261Z,10.82
2023-01-13T00:33:48.312Z,11.50
2023-01-13T00:36:16.188Z,10.57
2023-01-13T00:38:44.785Z,11.55
2023-01-13T00:41:14.166Z,10.98
2023-01-13T00:43:41.985Z,11.88
2023-01-13T00:46:10.891Z,12.88
2023-01-13T00:48:38.053Z,13.70
2023-01-13T00:51:12.078Z,13.27
2023-01-13T00:53:40.931Z,13.40
2023-01-13T00:56:14.461Z,13.82
2023-01-13T00:58:42.728Z,13.37
2023-01-13T01:01:23.449Z,13.27
2023-01-13T01:03:52.123Z,13.93
2023-01-13T01:06:22.588Z,12.85
2023-01-13T01:08:50.225Z,13.70
2023-01-13T01:11:20.029Z,13.23
2023-01-13T01:13:52.500Z,13.40
2023-01-13T01:16:21.224Z,12.95
2023-01-13T01:18:49.775Z,12.55
2023-01-13T01:21:17.563Z,13.15
2023-01-13T01:23:45.152Z,12.65
2023-01-13T01:26:21.642Z,12.37
2023-01-13T01:28:48.863Z,12.37
2023-01-13T01:31:25.527Z,13.70
2023-01-13T01:33:54.044Z,13.18
2023-01-13T01:36:22.391Z,12.88
2023-01-13T01:38:49.584Z,12.23
2023-01-13T01:41:22.913Z,11.98
2023-01-13T01:44:04.205Z,11.18
2023-01-13T01:46:41.326Z,12.73
2023-01-13T01:49:17.751Z,12.50
2023-01-13T01:51:57.029Z,10.50
2023-01-13T01:55:07.579Z,10.35
2023-01-13T01:57:59.952Z,10.77
2023-01-13T02:00:29.003Z,10.63
2023-01-13T02:02:57.520Z,10.35
2023-01-13T02:05:24.830Z,10.80
2023-01-13T02:07:54.027Z,9.77
2023-01-13T02:10:23.572Z,10.43
2023-01-13T02:12:51.035Z,10.85
2023-01-13T02:15:23.421Z,10.57
2023-01-13T02:17:56.777Z,10.65
2023-01-13T02:20:42.480Z,10.75
2023-01-13T02:23:52.511Z,11.10
2023-01-13T02:26:34.820Z,9.70
2023-01-13T02:29:42.752Z,10.40
2023-01-13T02:32:24.057Z,9.60
2023-01-13T02:35:16.893Z,10.10
2023-01-13T02:37:44.204Z,9.60
2023-01-13T02:40:28.901Z,8.98
2023-01-13T02:43:57.185Z,9.20
2023-01-13T02:46:31.236Z,8.63
2023-01-13T02:49:01.537Z,9.38
2023-01-13T02:51:30.154Z,9.20
2023-01-13T02:54:01.649Z,10.32
2023-01-13T02:56:29.913Z,10.00
2023-01-13T02:58:57.846Z,10.02
2023-01-13T03:01:25.451Z,9.93
2023-01-13T03:03:53.105Z,9.50
2023-01-13T03:06:29.912Z,9.63
2023-01-13T03:09:20.975Z,11.15
2023-01-13T03:11:58.855Z,10.52
2023-01-13T03:14:34.899Z,10.05
2023-01-13T03:17:26.358Z,10.73
2023-01-13T03:20:06.940Z,10.75
2023-01-13T03:22:41.164Z,10.88
2023-01-13T03:25:18.139Z,9.15
2023-01-13T03:27:58.076Z,10.52
2023-01-13T03:30:41.124Z,10.88
2023-01-13T03:33:56.926Z,12.25
2023-01-13T03:36:26.485Z,11.32
2023-01-13T03:39:03.947Z,11.73
2023-01-13T03:41:37.211Z,11.98
2023-01-13T03:44:23.432Z,11.38
2023-01-13T03:47:03.967Z,11.57
2023-01-13T03:49:43.853Z,13.35
2023-01-13T03:52:15.989Z,11.35
2023-01-13T03:54:58.876Z,11.65
2023-01-13T03:57:30.293Z,11.15
2023-01-13T03:59:59.692Z,11.70
2023-01-13T04:02:47.868Z,11.07
2023-01-13T04:05:15.823Z,11.02
2023-01-13T04:07:48.301Z,11.50
2023-01-13T04:10:20.508Z,10.90
2023-01-13T04:13:04.933Z,11.38
2023-01-13T04:15:38.511Z,10.27
2023-01-13T04:18:21.954Z,12.30
2023-01-13T04:20:51.035Z,11.05
2023-01-13T04:23:19.083Z,11.27
2023-01-13T04:25:47.378Z,11.30
2023-01-13T04:28:15.796Z,11.05
2023-01-13T04:30:43.422Z,12.18
2023-01-13T04:33:11.511Z,12.35
2023-01-13T04:35:39.005Z,13.07
2023-01-13T04:38:11.929Z,13.25
2023-01-13T04:40:40.287Z,12.13
2023-01-13T04:43:07.616Z,11.85
2023-01-13T04:45:34.695Z,11.40
2023-01-13T04:48:02.519Z,13.93
2023-01-13T04:50:29.659Z,11.20
2023-01-13T04:52:56.920Z,11.30
2023-01-13T04:55:25.042Z,10.77
2023-01-13T04:57:52.452Z,11.82
2023-01-13T05:00:21.855Z,11.07
2023-01-13T05:02:51.116Z,10.38
2023-01-13T05:05:18.871Z,9.73
2023-01-13T05:07:46.359Z,10.95
2023-01-13T05:10:13.921Z,10.35
2023-01-13T05:12:59.934Z,10.40
2023-01-13T05:15:45.976Z,10.35
2023-01-13T05:18:13.587Z,10.35
2023-01-13T05:20:40.862Z,9.32
2023-01-13T05:23:26.572Z,10.07
2023-01-13T05:25:54.132Z,8.52
2023-01-13T05:28:21.150Z,9.25
2023-01-13T05:30:49.806Z,9.18
2023-01-13T05:33:18.962Z,9.88
2023-01-13T05:35:46.818Z,9.02
2023-01-13T05:38:14.221Z,10.80
2023-01-13T05:41:00.660Z,9.13
2023-01-13T05:43:28.210Z,9.15
2023-01-13T05:46:08.833Z,9.32
2023-01-13T05:48:38.216Z,9.27
2023-01-13T05:51:07.489Z,9.15
2023-01-13T05:53:35.349Z,9.38
2023-01-13T05:56:07.081Z,10.82
2023-01-13T05:58:34.609Z,10.57
2023-01-13T06:01:08.533Z,10.80
2023-01-13T06:03:37.021Z,10.18
2023-01-13T06:06:04.586Z,8.98
2023-01-13T06:08:32.129Z,8.00
2023-01-13T06:10:59.653Z,8.38
2023-01-13T06:13:26.995Z,7.68
2023-01-13T06:15:58.118Z,8.48
2023-01-13T06:18:25.573Z,8.68
2023-01-13T06:20:52.735Z,9.43
2023-01-13T06:23:20.146Z,8.00
2023-01-13T06:26:20.927Z,9.50
2023-01-13T06:28:49.991Z,8.57
2023-01-13T06:31:17.425Z,9.40
2023-01-13T06:33:57.973Z,10.23
2023-01-13T06:36:32.380Z,10.95
2023-01-13T06:41:46.515Z,11.05
2023-01-13T06:44:13.801Z,10.00
2023-01-13T06:46:41.231Z,11.63
2023-01-13T06:49:08.922Z,12.90
2023-01-13T06:51:35.943Z,14.87
2023-01-13T06:54:04.100Z,14.63
2023-01-13T06:56:31.186Z,16.52
2023-01-13T06:58:58.403Z,16.45
2023-01-13T07:01:28.707Z,16.27
2023-01-13T07:03:56.167Z,13.95
2023-01-13T07:06:23.214Z,16.80
2023-01-13T07:08:50.544Z,15.80
2023-01-13T07:11:17.657Z,12.98
2023-01-13T07:14:03.047Z,15.73
2023-01-13T07:16:30.493Z,16.50
2023-01-13T07:18:57.500Z,16.17
2023-01-13T07:21:24.510Z,15.25
2023-01-13T07:23:51.837Z,12.50
2023-01-13T07:26:18.864Z,13.73
2023-01-13T07:28:45.870Z,12.37
2023-01-13T07:31:18.478Z,13.65
2023-01-13T07:33:45.670Z,14.02
2023-01-13T07:36:14.186Z,13.50
2023-01-13T07:38:41.539Z,13.93
2023-01-13T07:41:30.983Z,12.93
2023-01-13T07:44:05.470Z,13.23
2023-01-13T07:49:01.489Z,9.93
2023-01-13T07:51:28.537Z,13.27
2023-01-13T07:53:55.674Z,15.43
2023-01-13T07:56:23.007Z,15.52
2023-01-13T07:58:51.150Z,13.98
2023-01-13T08:01:19.039Z,13.55
2023-01-13T08:03:46.417Z,14.75
2023-01-13T08:06:14.308Z,16.90
2023-01-13T08:08:41.308Z,14.10
2023-01-13T08:11:10.058Z,14.63
2023-01-13T08:13:37.353Z,14.00
2023-01-13T08:16:06.974Z,13.30
2023-01-13T08:18:36.534Z,14.45
2023-01-13T08:21:06.337Z,12.60
2023-01-13T08:23:33.828Z,12.65
2023-01-13T08:26:03.130Z,9.82
2023-01-13T08:28:31.289Z,12.10
2023-01-13T08:31:06.155Z,11.82
2023-01-13T08:33:34.182Z,11.57
2023-01-13T08:46:44.696Z,14.10
2023-01-13T08:49:12.429Z,15.32
2023-01-13T08:51:39.575Z,13.82
2023-01-13T08:54:06.643Z,14.77
2023-01-13T08:56:35.584Z,15.13
2023-01-13T08:59:03.069Z,13.13
2023-01-13T09:01:30.310Z,12.63
2023-01-13T09:03:57.849Z,14.55
2023-01-13T09:06:24.891Z,13.62
2023-01-13T09:08:52.127Z,14.00
2023-01-13T09:11:40.532Z,13.95
2023-01-13T09:14:07.598Z,17.17
2023-01-13T09:16:37.036Z,16.40
2023-01-13T09:19:04.215Z,12.32
2023-01-13T09:21:31.396Z,12.63
2023-01-13T09:23:58.842Z,12.32
2023-01-13T09:26:25.892Z,14.52
2023-01-13T09:28:53.022Z,14.80
2023-01-13T09:31:20.625Z,14.95
2023-01-13T09:34:06.821Z,14.90
2023-01-13T09:36:34.662Z,13.80
2023-01-13T09:39:01.819Z,12.98
2023-01-13T09:41:50.052Z,14.80
2023-01-13T09:44:22.448Z,14.90
2023-01-13T09:46:53.355Z,14.75
2023-01-13T09:49:26.298Z,15.15
2023-01-13T09:52:12.035Z,17.02
2023-01-13T09:55:06.453Z,14.40
2023-01-13T09:57:37.713Z,14.85
2023-01-13T10:00:12.382Z,15.65
2023-01-13T10:02:45.740Z,17.50
2023-01-13T10:05:34.501Z,16.92
2023-01-13T10:08:06.577Z,14.75
2023-01-13T10:10:46.641Z,15.15
2023-01-13T10:13:26.456Z,15.27
2023-01-13T10:16:03.257Z,13.93
2023-01-13T10:18:37.293Z,15.38
2023-01-13T10:21:23.065Z,16.10
2023-01-13T10:23:57.329Z,16.42
2023-01-13T10:26:25.256Z,16.85
2023-01-13T10:28:54.259Z,16.02
2023-01-13T10:31:22.938Z,22.87
2023-01-13T10:33:58.425Z,16.67
2023-01-13T10:36:25.825Z,17.35
2023-01-13T10:38:56.168Z,17.48
2023-01-13T10:41:26.972Z,21.42
2023-01-13T10:44:05.937Z,18.15
2023-01-13T10:46:36.328Z,23.87
2023-01-13T10:49:19.408Z,20.92
2023-01-13T10:51:47.258Z,40.58
2023-01-13T10:54:23.156Z,40.65
2023-01-13T10:57:19.876Z,22.25
2023-01-13T10:59:48.415Z,17.58
2023-01-13T11:02:30.689Z,19.10
2023-01-13T11:05:22.851Z,17.12
2023-01-13T11:07:52.550Z,16.55
2023-01-13T11:10:27.624Z,16.55
2023-01-13T11:13:19.753Z,15.73
2023-01-13T11:15:51.316Z,15.18
2023-01-13T11:18:22.209Z,17.17
2023-01-13T11:20:50.592Z,17.10
2023-01-13T11:23:21.868Z,19.23
2023-01-13T11:25:53.230Z,21.48
2023-01-13T11:28:26.842Z,20.08
2023-01-13T11:30:57.819Z,19.90
2023-01-13T11:33:30.968Z,19.10
2023-01-13T11:36:09.168Z,23.05
2023-01-13T11:38:55.780Z,28.27
2023-01-13T11:42:07.914Z,18.40
2023-01-13T11:44:45.525Z,21.10
2023-01-13T11:47:13.715Z,18.02
2023-01-13T11:49:41.821Z,17.67
2023-01-13T11:52:45.011Z,23.08
2023-01-13T11:55:18.287Z,19.35
2023-01-13T11:58:38.805Z,21.40
2023-01-13T12:01:25.908Z,17.85
2023-01-13T12:04:06.279Z,19.00
2023-01-13T12:06:36.470Z,16.67
2023-01-13T12:09:25.055Z,22.95
2023-01-13T12:12:33.490Z,21.52
2023-01-13T12:15:30.146Z,19.87
2023-01-13T12:18:25.018Z,18.05
2023-01-13T12:21:04.690Z,19.27
2023-01-13T12:23:47.892Z,17.48
2023-01-13T12:26:16.762Z,19.67
2023-01-13T12:29:03.616Z,25.40
2023-01-13T12:31:32.027Z,27.45
2023-01-13T12:34:19.293Z,38.33
2023-01-13T12:37:14.727Z,44.78
2023-01-13T12:39:47.716Z,27.45
2023-01-13T12:42:38.900Z,21.67
2023-01-13T12:45:11.533Z,28.27
2023-01-13T12:47:43.557Z,23.30
2023-01-13T12:50:23.676Z,21.70
2023-01-13T12:52:52.098Z,42.95
2023-01-13T12:55:24.717Z,28.30
2023-01-13T12:57:59.170Z,16.27
2023-01-13T13:03:15.824Z,19.20
2023-01-13T13:05:56.972Z,20.80
2023-01-13T13:08:51.670Z,19.00
2023-01-13T13:11:53.861Z,18.95
2023-01-13T13:14:39.388Z,20.73
2023-01-13T13:17:34.119Z,37.20
2023-01-13T13:20:01.922Z,19.92
2023-01-13T13:22:41.767Z,23.10
2023-01-13T13:25:21.616Z,17.65
2023-01-13T13:28:12.075Z,18.27
2023-01-13T13:30:45.851Z,19.00
2023-01-13T13:33:29.961Z,17.90
2023-01-13T13:36:15.362Z,18.90
2023-01-13T13:39:29.389Z,20.27
2023-01-13T13:42:28.896Z,20.12
2023-01-13T13:45:15.498Z,20.80
2023-01-13T13:47:43.045Z,20.20
2023-01-13T13:50:16.232Z,19.90
2023-01-13T13:52:54.122Z,21.45
2023-01-13T13:55:25.004Z,18.73
2023-01-13T13:57:54.486Z,19.05
2023-01-13T14:00:30.641Z,17.73
2023-01-13T14:03:01.490Z,17.67
2023-01-13T14:05:34.525Z,17.98
2023-01-13T14:08:18.056Z,18.12
2023-01-13T14:10:46.272Z,17.35
2023-01-13T14:13:31.786Z,18.42
2023-01-13T14:16:00.003Z,18.25
2023-01-13T14:18:28.864Z,16.95
2023-01-13T14:20:59.984Z,18.95
2023-01-13T14:23:29.820Z,17.50
2023-01-13T14:26:13.100Z,17.37
2023-01-13T14:28:41.018Z,16.00
2023-01-13T14:31:09.440Z,17.08
2023-01-13T14:33:38.868Z,16.67
2023-01-13T14:36:32.740Z,15.88
2023-01-13T14:39:02.809Z,19.12
2023-01-13T14:41:33.786Z,24.12
2023-01-13T14:44:02.808Z,20.20
2023-01-13T14:46:38.548Z,18.25
2023-01-13T14:49:05.863Z,18.35
2023-01-13T14:51:33.234Z,18.30
2023-01-13T14:54:00.349Z,17.52
2023-01-13T14:56:42.764Z,18.75
2023-01-13T14:59:56.183Z,19.90
2023-01-13T15:02:29.758Z,16.83
2023-01-13T15:05:20.316Z,16.55
2023-01-13T15:08:00.796Z,18.45
2023-01-13T15:10:37.205Z,17.48
2023-01-13T15:13:06.302Z,21.67
2023-01-13T15:15:38.178Z,18.40
2023-01-13T15:18:14.618Z,17.85
2023-01-13T15:20:42.678Z,17.60
2023-01-13T15:23:09.835Z,16.73
2023-01-13T15:25:42.165Z,18.27
2023-01-13T15:28:26.090Z,20.05
2023-01-13T15:30:54.676Z,20.07
2023-01-13T15:33:22.746Z,19.40
2023-01-13T15:35:51.635Z,20.02
2023-01-13T15:38:21.021Z,20.08
2023-01-13T15:40:49.995Z,20.20
2023-01-13T15:43:39.127Z,20.62
2023-01-13T15:46:32.630Z,22.70
2023-01-13T15:49:42.484Z,19.52
2023-01-13T15:52:21.876Z,22.13
2023-01-13T15:54:54.582Z,21.20
2023-01-13T15:57:25.983Z,20.95
2023-01-13T15:59:58.378Z,19.83
2023-01-13T16:02:29.803Z,19.75
2023-01-13T16:04:57.443Z,21.42
2023-01-13T16:07:25.385Z,19.40
2023-01-13T16:09:52.960Z,17.67
2023-01-13T16:12:20.358Z,21.27
2023-01-13T16:14:47.624Z,23.02
2023-01-13T16:17:27.345Z,21.80
2023-01-13T16:19:54.751Z,21.75
2023-01-13T16:22:24.075Z,19.77
2023-01-13T16:24:51.264Z,21.33
2023-01-13T16:27:21.149Z,20.60
2023-01-13T16:29:49.236Z,21.75
2023-01-13T16:32:17.076Z,21.42
2023-01-13T16:34:44.451Z,19.27
2023-01-13T16:37:23.886Z,19.17
2023-01-13T16:39:52.260Z,18.08
2023-01-13T16:42:20.210Z,20.62
2023-01-13T16:44:48.534Z,20.90
2023-01-13T16:47:17.305Z,20.08
2023-01-13T16:49:45.475Z,19.67
2023-01-13T16:52:12.560Z,19.80
2023-01-13T16:54:39.979Z,18.58
2023-01-13T16:57:12.580Z,18.75
2023-01-13T16:59:40.021Z,21.35
2023-01-13T17:02:13.679Z,20.62
2023-01-13T17:04:43.983Z,20.12
2023-01-13T17:07:16.949Z,17.33
2023-01-13T17:09:44.428Z,19.75
2023-01-13T17:12:11.695Z,21.35
2023-01-13T17:14:38.768Z,19.62
2023-01-13T17:17:06.140Z,21.95
2023-01-13T17:19:33.218Z,18.90
2023-01-13T17:22:00.324Z,21.02
2023-01-13T17:24:31.252Z,21.52
2023-01-13T17:26:58.775Z,20.30
2023-01-13T17:29:27.115Z,20.30
2023-01-13T17:31:54.834Z,20.62
2023-01-13T17:34:21.958Z,21.55
2023-01-13T17:36:49.191Z,22.20
2023-01-13T17:39:21.890Z,22.37
2023-01-13T17:41:49.687Z,21.52
2023-01-13T17:44:18.933Z,20.92
2023-01-13T17:46:46.541Z,22.05
2023-01-13T17:49:15.606Z,19.00
2023-01-13T17:51:43.377Z,20.77
2023-01-13T17:54:12.303Z,23.87
2023-01-13T17:56:41.344Z,20.80
2023-01-13T17:59:10.895Z,20.65
2023-01-13T18:01:39.091Z,24.02
2023-01-13T18:04:07.028Z,23.52
2023-01-13T18:06:34.672Z,23.85
2023-01-13T18:09:01.809Z,23.05
2023-01-13T18:11:29.199Z,23.42
2023-01-13T18:14:00.296Z,21.40
2023-01-13T18:16:30.248Z,21.98
2023-01-13T18:19:18.544Z,20.37
2023-01-13T18:22:05.294Z,21.75
2023-01-13T18:24:51.170Z,18.65
2023-01-13T18:27:24.194Z,24.12
2023-01-13T18:29:56.067Z,23.57
2023-01-13T18:32:26.401Z,19.80
2023-01-13T18:35:04.773Z,20.10
2023-01-13T18:37:35.969Z,19.58
2023-01-13T18:40:05.162Z,19.87
2023-01-13T18:42:50.723Z,20.52
2023-01-13T18:45:19.909Z,19.40
2023-01-13T18:47:46.991Z,22.50
2023-01-13T18:50:14.154Z,21.50
2023-01-13T18:52:43.155Z,24.63
2023-01-13T18:55:10.288Z,23.00
2023-01-13T18:57:40.592Z,22.85
2023-01-13T19:00:13.912Z,22.60
2023-01-13T19:02:41.220Z,23.12
2023-01-13T19:05:10.174Z,23.23
2023-01-13T19:07:37.232Z,22.05
2023-01-13T19:10:06.279Z,21.33
2023-01-13T19:12:34.285Z,21.35
2023-01-13T19:15:01.973Z,21.37
2023-01-13T19:17:34.325Z,21.85
2023-01-13T19:20:02.106Z,18.87
2023-01-13T19:22:32.728Z,20.42
2023-01-13T19:25:00.715Z,20.02
2023-01-13T19:27:28.760Z,22.33
2023-01-13T19:30:00.521Z,18.85
2023-01-13T19:32:28.743Z,20.05
2023-01-13T19:34:59.272Z,21.05
2023-01-13T19:37:30.285Z,19.80
2023-01-13T19:39:59.891Z,20.35
2023-01-13T19:42:45.951Z,18.87
2023-01-13T19:45:27.208Z,20.48
2023-01-13T19:47:55.407Z,19.75
2023-01-13T19:50:22.860Z,19.15
2023-01-13T19:52:49.865Z,18.98
2023-01-13T19:55:17.238Z,20.62
2023-01-13T19:57:44.617Z,19.95
2023-01-13T20:00:14.206Z,20.08
2023-01-13T20:02:47.822Z,20.48
2023-01-13T20:05:21.090Z,20.40
2023-01-13T20:07:50.222Z,20.67
2023-01-13T20:10:21.452Z,17.92
2023-01-13T20:12:48.917Z,18.87
2023-01-13T20:15:16.009Z,18.48
2023-01-13T20:17:42.988Z,20.60
2023-01-13T20:20:10.831Z,20.95
2023-01-13T20:22:39.207Z,24.08
2023-01-13T20:25:07.304Z,20.92
2023-01-13T20:27:34.840Z,24.08
2023-01-13T20:30:01.823Z,24.60
2023-01-13T20:32:28.975Z,28.98
2023-01-13T20:34:56.270Z,27.13
2023-01-13T20:37:23.453Z,25.27
2023-01-13T20:39:50.618Z,24.48
2023-01-13T20:42:29.964Z,26.12
2023-01-13T20:45:00.440Z,26.73
2023-01-13T20:47:30.476Z,26.25
2023-01-13T20:49:58.901Z,24.48
2023-01-13T20:52:26.035Z,23.35
2023-01-13T20:54:53.453Z,24.90
2023-01-13T20:57:20.585Z,22.87
2023-01-13T20:59:47.607Z,22.37
2023-01-13T21:02:16.253Z,22.87
2023-01-13T21:04:43.787Z,22.42
2023-01-13T21:07:12.261Z,23.02
2023-01-13T21:09:39.833Z,22.10
2023-01-13T21:12:25.692Z,21.30
2023-01-13T21:15:11.629Z,22.83
2023-01-13T21:17:57.533Z,21.55
2023-01-13T21:20:24.861Z,23.10
2023-01-13T21:22:53.095Z,21.40
2023-01-13T21:25:20.194Z,20.55
2023-01-13T21:27:47.611Z,22.48
2023-01-13T21:30:15.790Z,22.37
2023-01-13T21:32:46.741Z,25.08
2023-01-13T21:35:15.019Z,22.00
2023-01-13T21:37:43.289Z,23.35
2023-01-13T21:40:12.745Z,25.30
2023-01-13T21:42:58.982Z,22.62
2023-01-13T21:45:44.957Z,23.15
2023-01-13T21:48:12.469Z,23.30
2023-01-13T21:50:39.595Z,24.10
2023-01-13T21:53:07.962Z,23.25
2023-01-13T21:55:36.999Z,28.30
2023-01-13T21:58:14.696Z,24.20
2023-01-13T22:00:43.784Z,24.58
2023-01-13T22:03:16.061Z,24.87
2023-01-13T22:05:43.102Z,25.88
2023-01-13T22:08:12.422Z,24.70
2023-01-13T22:10:57.149Z,24.25
2023-01-13T22:13:43.723Z,23.60
2023-01-13T22:16:12.736Z,23.95
2023-01-13T22:18:40.201Z,24.08
2023-01-13T22:21:07.460Z,25.40
2023-01-13T22:23:34.532Z,24.15
2023-01-13T22:26:05.731Z,23.75
2023-01-13T22:28:34.221Z,24.20
2023-01-13T22:31:01.577Z,26.20
2023-01-13T22:33:28.588Z,26.30
2023-01-13T22:35:55.941Z,23.50
2023-01-13T22:38:24.149Z,23.12
2023-01-13T22:41:03.080Z,23.80
2023-01-13T22:43:30.941Z,22.52
2023-01-13T22:45:59.664Z,22.55
2023-01-13T22:48:27.538Z,20.62
2023-01-13T22:50:55.247Z,22.65
2023-01-13T22:53:22.574Z,20.83
2023-01-13T22:55:57.284Z,20.90
2023-01-13T22:58:25.253Z,20.17
2023-01-13T23:00:53.473Z,21.00
2023-01-13T23:03:22.518Z,19.83
2023-01-13T23:05:56.027Z,21.08
2023-01-13T23:08:23.097Z,20.03
2023-01-13T23:10:50.848Z,21.45
2023-01-13T23:13:17.885Z,22.58
2023-01-13T23:15:45.335Z,20.88
2023-01-13T23:18:12.643Z,23.52
2023-01-13T23:20:39.704Z,24.55
2023-01-13T23:23:07.071Z,23.40
2023-01-13T23:25:34.467Z,24.00
2023-01-13T23:28:01.612Z,24.33
2023-01-13T23:30:28.731Z,23.70
2023-01-13T23:32:56.176Z,21.60
2023-01-13T23:35:23.258Z,22.17
2023-01-13T23:37:50.317Z,22.05
2023-01-13T23:40:17.855Z,21.58
2023-01-13T23:42:44.979Z,21.42
2023-01-13T23:45:12.083Z,21.77
2023-01-13T23:47:39.461Z,20.62
2023-01-13T23:50:06.657Z,21.05
2023-01-13T23:52:33.646Z,20.05
2023-01-13T23:55:01.061Z,18.52
2023-01-13T23:57:28.465Z,20.35
2023-01-13T23:59:55.637Z,20.85
